Terminal Aerodrome Forecast
Issued by NWS

Home | Current Version | Previous Version | Text Only | Print | Product List | Glossary On
Versions: 1 2 3 4 5 6 7 8 9 10 11 12 13 14 15 16 17
000
FTUS44 KBMX 281200 AAA
TAFTOI
TAF AMD
KTOI 281231Z 2813/2912 16004KT 6SM -RA BR BKN006 OVC015
     FM281400 20005KT 6SM -RA BR OVC006
     FM281800 27007KT 5SM -RA BR OVC007
     FM290200 33007KT 4SM -RA BR OVC007=

USA.gov is the U.S. government's official web portal to all federal, state and local government web resources and services.